createdAt,value
2023-03-30T00:00:22.776Z,48.76
2023-03-30T00:02:49.381Z,48.87
2023-03-30T00:05:15.704Z,48.94
2023-03-30T00:07:41.971Z,49.06
2023-03-30T00:10:08.322Z,49.15
2023-03-30T00:12:34.685Z,49.31
2023-03-30T00:15:01.005Z,49.30
2023-03-30T00:17:27.382Z,49.46
2023-03-30T00:19:53.760Z,49.61
2023-03-30T00:22:20.068Z,49.62
2023-03-30T00:24:46.438Z,49.76
2023-03-30T00:27:12.830Z,49.75
2023-03-30T00:29:39.160Z,49.62
2023-03-30T00:32:05.614Z,49.87
2023-03-30T00:34:32.198Z,49.94
2023-03-30T00:36:58.571Z,50.18
2023-03-30T00:39:24.923Z,50.58
2023-03-30T00:41:51.292Z,50.64
2023-03-30T00:44:20.025Z,51.09
2023-03-30T00:46:46.379Z,51.39
2023-03-30T00:49:12.698Z,52.16
2023-03-30T00:51:39.066Z,53.20
2023-03-30T00:54:05.391Z,54.05
2023-03-30T00:56:31.819Z,54.24
2023-03-30T00:58:58.168Z,54.79
2023-03-30T01:01:24.573Z,55.44
2023-03-30T01:03:51.068Z,55.69
2023-03-30T01:06:17.330Z,56.11
2023-03-30T01:08:43.644Z,55.86
2023-03-30T01:11:12.707Z,56.11
2023-03-30T01:13:36.345Z,56.14
2023-03-30T01:16:02.896Z,56.19
2023-03-30T01:18:29.200Z,56.50
2023-03-30T01:20:55.553Z,56.87
2023-03-30T01:23:21.925Z,56.88
2023-03-30T01:25:48.257Z,57.20
2023-03-30T01:28:14.588Z,57.45
2023-03-30T01:30:40.979Z,57.85
2023-03-30T01:33:07.386Z,57.92
2023-03-30T01:35:33.814Z,58.00
2023-03-30T01:37:59.970Z,58.32
2023-03-30T01:40:26.376Z,58.52
2023-03-30T01:42:52.676Z,58.87
2023-03-30T01:45:19.041Z,59.30
2023-03-30T01:47:45.459Z,59.58
2023-03-30T01:50:11.823Z,59.81
2023-03-30T01:52:38.226Z,59.95
2023-03-30T01:55:04.598Z,60.45
2023-03-30T01:57:30.946Z,60.45
2023-03-30T01:59:57.369Z,60.62
2023-03-30T02:02:23.843Z,60.42
2023-03-30T02:04:50.059Z,60.55
2023-03-30T02:07:16.425Z,60.65
2023-03-30T02:09:42.768Z,60.81
2023-03-30T02:12:09.083Z,60.52
2023-03-30T02:14:35.427Z,60.46
2023-03-30T02:17:01.814Z,60.39
2023-03-30T02:19:28.165Z,60.51
2023-03-30T02:21:54.496Z,60.46
2023-03-30T02:24:20.840Z,60.46
2023-03-30T02:26:47.203Z,60.51
2023-03-30T02:29:13.527Z,60.69
2023-03-30T02:31:40.111Z,60.93
2023-03-30T02:34:06.398Z,61.32
2023-03-30T02:36:32.763Z,61.61
2023-03-30T02:38:59.148Z,62.08
2023-03-30T02:41:25.495Z,62.34
2023-03-30T02:43:51.885Z,62.79
2023-03-30T02:46:18.244Z,63.16
2023-03-30T02:48:44.580Z,63.68
2023-03-30T02:51:10.914Z,63.89
2023-03-30T02:53:37.243Z,64.18
2023-03-30T02:56:03.641Z,64.54
2023-03-30T02:58:29.981Z,64.90
2023-03-30T03:00:58.772Z,65.29
2023-03-30T03:03:22.891Z,65.41
2023-03-30T03:05:49.021Z,65.92
2023-03-30T03:08:15.436Z,66.19
2023-03-30T03:10:41.829Z,66.18
2023-03-30T03:13:08.196Z,66.33
2023-03-30T03:15:34.540Z,66.75
2023-03-30T03:18:00.976Z,67.03
2023-03-30T03:20:27.288Z,67.35
2023-03-30T03:22:53.684Z,67.78
2023-03-30T03:25:19.994Z,68.45
2023-03-30T03:27:46.374Z,68.85
2023-03-30T03:30:12.695Z,69.32
2023-03-30T03:32:39.122Z,69.42
2023-03-30T03:35:05.450Z,69.48
2023-03-30T03:37:31.829Z,70.08
2023-03-30T03:39:58.155Z,70.61
2023-03-30T03:42:24.508Z,71.13
2023-03-30T03:44:50.831Z,71.30
2023-03-30T03:47:17.178Z,72.64
2023-03-30T03:49:43.566Z,73.87
2023-03-30T03:52:09.947Z,73.91
2023-03-30T03:54:36.263Z,74.51
2023-03-30T03:57:02.677Z,75.20
2023-03-30T03:59:28.947Z,75.62
2023-03-30T04:01:55.356Z,75.65
2023-03-30T04:04:21.790Z,76.04
2023-03-30T04:06:48.036Z,76.40
2023-03-30T04:09:14.396Z,76.40
2023-03-30T04:11:40.783Z,76.43
2023-03-30T04:14:07.102Z,76.68
2023-03-30T04:16:33.553Z,76.73
2023-03-30T04:19:00.061Z,76.71
2023-03-30T04:21:26.357Z,76.39
2023-03-30T04:23:52.756Z,76.09
2023-03-30T04:26:19.138Z,75.58
2023-03-30T04:28:45.444Z,75.46
2023-03-30T04:31:11.853Z,75.18
2023-03-30T04:33:38.203Z,75.07
2023-03-30T04:36:04.625Z,75.70
2023-03-30T04:38:30.969Z,76.12
2023-03-30T04:40:57.412Z,76.28
2023-03-30T04:43:23.728Z,76.25
2023-03-30T04:45:50.173Z,76.12
2023-03-30T04:48:16.672Z,76.13
2023-03-30T04:50:42.999Z,76.13
2023-03-30T04:53:09.372Z,76.03
2023-03-30T04:55:35.700Z,76.09
2023-03-30T04:58:02.061Z,76.29
2023-03-30T05:00:28.540Z,76.37
2023-03-30T05:02:54.932Z,76.25
2023-03-30T05:05:21.450Z,76.33
2023-03-30T05:07:47.848Z,76.24
2023-03-30T05:10:14.194Z,76.17
2023-03-30T05:12:40.646Z,76.12
2023-03-30T05:15:06.984Z,76.14
2023-03-30T05:17:33.335Z,76.17
2023-03-30T05:19:59.736Z,76.41
2023-03-30T05:22:26.109Z,76.40
2023-03-30T05:24:52.528Z,76.27
2023-03-30T05:27:18.809Z,76.50
2023-03-30T05:29:45.237Z,76.74
2023-03-30T05:32:13.755Z,77.02
2023-03-30T05:34:40.102Z,77.43
2023-03-30T05:37:06.474Z,77.87
2023-03-30T05:39:33.170Z,78.21
2023-03-30T05:41:59.491Z,78.42
2023-03-30T05:44:28.002Z,78.58
2023-03-30T05:46:54.396Z,78.49
2023-03-30T05:49:20.780Z,78.43
2023-03-30T05:51:53.073Z,78.28
2023-03-30T05:54:19.490Z,78.58
2023-03-30T05:56:45.906Z,78.48
2023-03-30T05:59:12.291Z,78.43
2023-03-30T06:01:38.693Z,78.73
2023-03-30T06:04:05.119Z,78.67
2023-03-30T06:06:31.376Z,78.22
2023-03-30T06:08:57.763Z,78.17
2023-03-30T06:11:24.415Z,77.99
2023-03-30T06:13:50.748Z,78.09
2023-03-30T06:16:17.148Z,78.04
2023-03-30T06:18:43.960Z,78.08
2023-03-30T06:21:10.414Z,77.61
2023-03-30T06:23:36.603Z,77.42
2023-03-30T06:26:03.150Z,77.19
2023-03-30T06:28:29.530Z,77.54
2023-03-30T06:30:56.029Z,77.68
2023-03-30T06:33:22.372Z,77.67
2023-03-30T06:35:48.781Z,77.81
2023-03-30T06:38:15.383Z,78.01
2023-03-30T06:40:41.732Z,77.72
2023-03-30T06:43:08.207Z,76.87
2023-03-30T06:45:34.573Z,76.79
2023-03-30T06:48:00.951Z,76.76
2023-03-30T06:50:27.288Z,76.00
2023-03-30T06:52:53.624Z,75.53
2023-03-30T06:55:19.987Z,75.26
2023-03-30T06:57:46.409Z,74.80
2023-03-30T07:00:12.721Z,74.51
2023-03-30T07:02:39.114Z,73.80
2023-03-30T07:05:05.578Z,73.09
2023-03-30T07:07:31.959Z,72.75
2023-03-30T07:09:58.324Z,72.34
2023-03-30T07:12:24.677Z,71.84
2023-03-30T07:14:51.045Z,71.55
2023-03-30T07:17:17.647Z,71.21
2023-03-30T07:19:43.756Z,70.75
2023-03-30T07:22:10.103Z,70.78
2023-03-30T07:24:36.427Z,70.17
2023-03-30T07:27:02.830Z,69.96
2023-03-30T07:29:29.158Z,69.71
2023-03-30T07:31:55.529Z,69.33
2023-03-30T07:34:21.903Z,69.02
2023-03-30T07:36:48.299Z,68.83
2023-03-30T07:39:14.750Z,68.04
2023-03-30T07:41:41.129Z,67.33
2023-03-30T07:44:07.500Z,67.61
2023-03-30T07:46:34.079Z,67.06
2023-03-30T07:49:00.449Z,65.90
2023-03-30T07:51:28.108Z,64.64
2023-03-30T07:53:53.163Z,62.89
2023-03-30T07:56:19.586Z,62.36
2023-03-30T07:58:45.890Z,60.21
2023-03-30T08:01:12.280Z,59.27
2023-03-30T08:03:39.042Z,58.46
2023-03-30T08:06:05.272Z,58.07
2023-03-30T08:08:31.638Z,58.05
2023-03-30T08:10:58.000Z,57.75
2023-03-30T08:13:24.364Z,57.67
2023-03-30T08:15:50.845Z,57.20
2023-03-30T08:18:17.122Z,57.22
2023-03-30T08:20:43.475Z,55.44
2023-03-30T08:23:09.875Z,55.94
2023-03-30T08:25:36.281Z,55.26
2023-03-30T08:28:02.648Z,55.19
2023-03-30T08:30:29.046Z,54.70
2023-03-30T08:32:55.479Z,54.74
2023-03-30T08:35:21.867Z,51.88
2023-03-30T08:37:48.158Z,51.22
2023-03-30T08:40:15.861Z,51.21
2023-03-30T08:42:40.943Z,51.37
2023-03-30T08:45:07.398Z,51.62
2023-03-30T08:47:33.784Z,51.10
2023-03-30T08:50:00.410Z,50.87
2023-03-30T08:52:26.758Z,51.56
2023-03-30T08:54:53.176Z,51.68
2023-03-30T08:57:21.034Z,51.58
2023-03-30T08:59:46.056Z,51.49
2023-03-30T09:02:12.514Z,50.67
2023-03-30T09:04:38.931Z,50.06
2023-03-30T09:07:05.306Z,50.21
2023-03-30T09:09:31.686Z,49.87
2023-03-30T09:11:58.062Z,50.77
2023-03-30T09:14:24.420Z,49.98
2023-03-30T09:16:50.837Z,49.56
2023-03-30T09:19:17.127Z,48.46
2023-03-30T09:21:43.516Z,46.75
2023-03-30T09:24:09.804Z,46.35
2023-03-30T09:26:36.203Z,45.78
2023-03-30T09:29:02.700Z,45.29
2023-03-30T09:31:29.144Z,42.57
2023-03-30T09:33:55.390Z,42.71
2023-03-30T09:36:22.145Z,42.24
2023-03-30T09:38:48.408Z,44.42
2023-03-30T09:41:14.818Z,44.12
2023-03-30T09:43:41.240Z,40.34
2023-03-30T09:46:07.927Z,40.21
2023-03-30T09:48:33.953Z,39.10
2023-03-30T09:51:00.343Z,40.53
2023-03-30T09:53:26.711Z,40.98
2023-03-30T09:55:53.085Z,38.66
2023-03-30T09:58:19.693Z,39.15
2023-03-30T10:00:46.133Z,38.27
2023-03-30T10:03:12.509Z,39.80
2023-03-30T10:05:39.098Z,40.23
2023-03-30T10:08:05.622Z,40.70
2023-03-30T10:10:31.950Z,39.49
2023-03-30T10:12:58.355Z,38.87
2023-03-30T10:15:24.793Z,39.15
2023-03-30T10:17:51.185Z,40.37
2023-03-30T10:20:17.511Z,41.59
2023-03-30T10:22:43.892Z,41.03
2023-03-30T10:25:10.282Z,41.17
2023-03-30T10:27:36.691Z,39.75
2023-03-30T10:30:04.506Z,39.86
2023-03-30T10:32:30.902Z,40.53
2023-03-30T10:34:57.315Z,40.88
2023-03-30T10:37:23.677Z,41.39
2023-03-30T10:39:50.067Z,41.43
2023-03-30T10:42:16.463Z,40.98
2023-03-30T10:44:42.829Z,41.43
2023-03-30T10:47:09.192Z,41.53
2023-03-30T10:49:35.543Z,42.04
2023-03-30T10:52:01.870Z,42.17
2023-03-30T10:54:28.214Z,42.11
2023-03-30T10:56:55.042Z,41.98
2023-03-30T10:59:21.390Z,41.52
2023-03-30T11:01:47.725Z,42.00
2023-03-30T11:04:23.239Z,40.60
2023-03-30T11:06:40.487Z,38.43
2023-03-30T11:09:06.879Z,36.71
2023-03-30T11:11:33.243Z,36.09
2023-03-30T11:13:59.987Z,36.08
2023-03-30T11:16:26.405Z,36.56
2023-03-30T11:18:52.802Z,35.03
2023-03-30T11:21:19.129Z,36.27
2023-03-30T11:23:46.568Z,37.12
2023-03-30T11:26:13.235Z,38.00
2023-03-30T11:28:39.584Z,39.07
2023-03-30T11:31:05.940Z,38.23
2023-03-30T11:33:32.400Z,36.66
2023-03-30T11:35:59.750Z,35.75
2023-03-30T11:38:26.083Z,35.94
2023-03-30T11:40:53.323Z,35.50
2023-03-30T11:43:19.695Z,35.09
2023-03-30T11:45:46.075Z,34.89
2023-03-30T11:48:12.488Z,35.51
2023-03-30T11:50:38.779Z,35.94
2023-03-30T11:53:05.162Z,35.27
2023-03-30T11:55:31.485Z,35.07
2023-03-30T11:57:57.857Z,35.38
2023-03-30T12:00:24.202Z,33.66
2023-03-30T12:02:50.685Z,34.20
2023-03-30T12:05:17.352Z,33.18
2023-03-30T12:07:43.699Z,33.24
2023-03-30T12:10:10.322Z,33.09
2023-03-30T12:12:36.662Z,33.10
2023-03-30T12:15:03.018Z,33.50
2023-03-30T12:17:29.437Z,33.11
2023-03-30T12:19:56.899Z,32.86
2023-03-30T12:22:22.154Z,33.18
2023-03-30T12:24:49.559Z,33.20
2023-03-30T12:27:15.947Z,32.58
2023-03-30T12:32:08.821Z,32.71
2023-03-30T12:34:35.036Z,32.60
2023-03-30T12:37:01.604Z,32.85
2023-03-30T12:39:27.942Z,32.67
2023-03-30T12:41:55.338Z,32.21
2023-03-30T12:44:20.674Z,33.36
2023-03-30T12:46:47.015Z,32.00
2023-03-30T12:49:13.423Z,31.69
2023-03-30T12:51:39.811Z,32.29
2023-03-30T12:54:06.114Z,33.00
2023-03-30T12:56:32.473Z,33.51
2023-03-30T12:58:58.873Z,34.72
2023-03-30T13:01:25.291Z,34.93
2023-03-30T13:03:51.590Z,35.76
2023-03-30T13:06:17.984Z,35.93
2023-03-30T13:08:44.332Z,34.97
2023-03-30T13:11:10.718Z,35.51
2023-03-30T13:13:37.054Z,35.23
2023-03-30T13:16:03.598Z,35.48
2023-03-30T13:18:29.811Z,35.37
2023-03-30T13:20:56.241Z,35.47
2023-03-30T13:23:24.976Z,35.64
2023-03-30T13:25:51.358Z,35.70
2023-03-30T13:28:17.713Z,35.94
2023-03-30T13:30:44.123Z,36.02
2023-03-30T13:33:10.440Z,36.26
2023-03-30T13:35:36.824Z,36.33
2023-03-30T13:38:03.217Z,36.90
2023-03-30T13:40:41.565Z,36.28
2023-03-30T13:42:55.993Z,36.40
2023-03-30T13:45:22.393Z,36.07
2023-03-30T13:47:48.808Z,36.28
2023-03-30T13:50:15.174Z,35.87
2023-03-30T13:52:41.618Z,35.82
2023-03-30T13:55:08.035Z,35.71
2023-03-30T13:57:34.295Z,35.39
2023-03-30T14:00:00.688Z,35.79
2023-03-30T14:02:27.122Z,35.80
2023-03-30T14:04:53.588Z,35.62
2023-03-30T14:07:19.955Z,35.53
2023-03-30T14:09:46.407Z,35.48
2023-03-30T14:12:12.771Z,35.40
2023-03-30T14:14:39.165Z,35.50
2023-03-30T14:17:05.602Z,35.49
2023-03-30T14:19:32.031Z,35.52
2023-03-30T14:21:58.343Z,35.26
2023-03-30T14:24:24.801Z,34.97
2023-03-30T14:26:51.254Z,34.88
2023-03-30T14:29:24.619Z,34.99
2023-03-30T14:31:51.111Z,35.60
2023-03-30T14:34:10.453Z,35.51
2023-03-30T14:36:36.780Z,35.62
2023-03-30T14:39:03.171Z,35.26
2023-03-30T14:41:29.618Z,35.51
2023-03-30T14:43:55.918Z,35.41
2023-03-30T14:46:22.450Z,35.54
2023-03-30T14:48:50.495Z,35.57
2023-03-30T14:51:15.024Z,35.49
2023-03-30T14:53:41.481Z,36.20
2023-03-30T14:56:07.950Z,35.92
2023-03-30T14:58:34.314Z,35.72
2023-03-30T15:01:00.703Z,35.78
2023-03-30T15:03:33.548Z,35.57
2023-03-30T15:05:53.402Z,35.86
2023-03-30T15:08:19.770Z,35.85
2023-03-30T15:10:46.087Z,35.39
2023-03-30T15:13:12.445Z,35.73
2023-03-30T15:15:38.866Z,35.78
2023-03-30T15:18:05.307Z,35.82
2023-03-30T15:20:31.589Z,35.84
2023-03-30T15:22:58.000Z,35.77
2023-03-30T15:25:25.467Z,35.54
2023-03-30T15:27:51.793Z,35.94
2023-03-30T15:30:18.159Z,35.80
2023-03-30T15:32:44.677Z,36.16
2023-03-30T15:35:11.307Z,35.85
2023-03-30T15:37:37.751Z,35.95
2023-03-30T15:40:04.168Z,36.15
2023-03-30T15:42:30.531Z,36.36
2023-03-30T15:44:57.976Z,36.18
2023-03-30T15:47:24.389Z,36.34
2023-03-30T15:49:50.748Z,36.29
2023-03-30T15:52:17.260Z,36.47
2023-03-30T15:54:43.556Z,36.52
2023-03-30T15:57:10.051Z,36.52
2023-03-30T15:59:36.327Z,36.57
2023-03-30T16:02:02.925Z,36.69
2023-03-30T16:04:29.156Z,36.90
2023-03-30T16:06:56.589Z,36.97
2023-03-30T16:09:22.962Z,36.95
2023-03-30T16:11:49.416Z,37.00
2023-03-30T16:14:15.752Z,37.03
2023-03-30T16:16:42.156Z,37.32
2023-03-30T16:19:08.565Z,37.52
2023-03-30T16:21:34.907Z,37.57
2023-03-30T16:24:01.248Z,37.67
2023-03-30T16:26:27.704Z,37.81
2023-03-30T16:28:54.035Z,37.94
2023-03-30T16:31:20.516Z,38.11
2023-03-30T16:33:46.826Z,37.88
2023-03-30T16:36:13.261Z,38.17
2023-03-30T16:38:39.567Z,38.37
2023-03-30T16:41:06.561Z,38.55
2023-03-30T16:43:32.703Z,38.90
2023-03-30T16:46:00.208Z,38.85
2023-03-30T16:48:26.535Z,38.93
2023-03-30T16:50:54.004Z,38.93
2023-03-30T16:53:20.281Z,39.08
2023-03-30T16:55:46.706Z,39.17
2023-03-30T16:58:13.034Z,39.02
2023-03-30T17:00:39.402Z,39.46
2023-03-30T17:03:05.807Z,39.91
2023-03-30T17:05:32.557Z,39.82
2023-03-30T17:07:58.566Z,39.96
2023-03-30T17:10:24.958Z,40.25
2023-03-30T17:12:51.319Z,40.62
2023-03-30T17:15:17.704Z,40.88
2023-03-30T17:17:44.171Z,40.51
2023-03-30T17:20:10.713Z,40.08
2023-03-30T17:22:37.032Z,40.35
2023-03-30T17:25:03.485Z,40.56
2023-03-30T17:27:38.549Z,40.27
2023-03-30T17:29:58.927Z,40.35
2023-03-30T17:32:25.456Z,40.54
2023-03-30T17:34:51.905Z,40.83
2023-03-30T17:37:18.398Z,41.10
2023-03-30T17:39:47.187Z,40.80
2023-03-30T17:42:11.202Z,40.60
2023-03-30T17:44:37.610Z,40.32
2023-03-30T17:47:04.094Z,40.17
2023-03-30T17:49:30.448Z,40.06
2023-03-30T17:51:57.036Z,40.04
2023-03-30T17:54:23.389Z,40.33
2023-03-30T17:56:49.794Z,40.65
2023-03-30T17:59:16.118Z,41.16
2023-03-30T18:01:42.456Z,41.24
2023-03-30T18:04:09.261Z,41.25
2023-03-30T18:06:35.430Z,41.47
2023-03-30T18:09:01.822Z,41.81
2023-03-30T18:11:28.581Z,42.31
2023-03-30T18:13:55.966Z,42.75
2023-03-30T18:16:22.638Z,43.14
2023-03-30T18:18:49.043Z,43.23
2023-03-30T18:21:15.343Z,43.35
2023-03-30T18:23:41.700Z,44.05
2023-03-30T18:26:11.315Z,44.14
2023-03-30T18:28:34.430Z,44.55
2023-03-30T18:31:01.141Z,44.63
2023-03-30T18:33:27.330Z,44.74
2023-03-30T18:35:53.742Z,44.89
2023-03-30T18:38:20.031Z,44.70
2023-03-30T18:40:46.384Z,44.34
2023-03-30T18:43:12.891Z,44.60
2023-03-30T18:45:39.400Z,44.86
2023-03-30T18:48:05.828Z,44.82
2023-03-30T18:50:32.120Z,44.77
2023-03-30T18:52:58.457Z,45.22
2023-03-30T18:55:24.834Z,45.01
2023-03-30T18:57:51.282Z,45.44
2023-03-30T19:00:17.594Z,45.72
2023-03-30T19:02:44.121Z,45.82
2023-03-30T19:05:10.445Z,45.80
2023-03-30T19:07:36.881Z,46.11
2023-03-30T19:10:03.331Z,46.16
2023-03-30T19:12:29.675Z,46.72
2023-03-30T19:14:56.028Z,46.62
2023-03-30T19:17:23.451Z,46.72
2023-03-30T19:19:49.967Z,46.77
2023-03-30T19:22:16.383Z,46.87
2023-03-30T19:24:42.761Z,47.64
2023-03-30T19:27:09.145Z,47.33
2023-03-30T19:29:35.517Z,47.75
2023-03-30T19:32:01.924Z,48.12
2023-03-30T19:34:28.280Z,48.13
2023-03-30T19:36:54.607Z,48.16
2023-03-30T19:39:21.960Z,48.23
2023-03-30T19:41:48.579Z,48.55
2023-03-30T19:44:14.941Z,48.64
2023-03-30T19:46:41.412Z,49.02
2023-03-30T19:49:09.192Z,49.09
2023-03-30T19:51:35.528Z,48.51
2023-03-30T19:54:03.401Z,48.19
2023-03-30T19:56:29.744Z,48.88
2023-03-30T19:58:56.061Z,48.73
2023-03-30T20:01:22.532Z,48.84
2023-03-30T20:03:48.939Z,49.15
2023-03-30T20:06:15.231Z,49.53
2023-03-30T20:08:41.632Z,49.90
2023-03-30T20:11:08.043Z,50.06
2023-03-30T20:13:34.411Z,50.39
2023-03-30T20:16:00.796Z,50.72
2023-03-30T20:18:28.847Z,51.36
2023-03-30T20:20:55.367Z,51.40
2023-03-30T20:23:21.788Z,51.83
2023-03-30T20:25:48.251Z,52.37
2023-03-30T20:28:14.465Z,52.55
2023-03-30T20:30:40.827Z,53.25
2023-03-30T20:33:08.447Z,53.26
2023-03-30T20:35:33.706Z,53.48
2023-03-30T20:38:00.162Z,53.80
2023-03-30T20:40:26.798Z,53.86
2023-03-30T20:42:53.199Z,54.31
2023-03-30T20:45:19.576Z,53.68
2023-03-30T20:47:46.045Z,53.36
2023-03-30T20:50:12.441Z,53.26
2023-03-30T20:52:38.874Z,53.29
2023-03-30T20:55:05.336Z,53.05
2023-03-30T20:57:31.863Z,52.93
2023-03-30T21:00:06.809Z,53.07
2023-03-30T21:02:34.586Z,53.11
2023-03-30T21:05:00.896Z,52.29
2023-03-30T21:07:29.792Z,51.88
2023-03-30T21:09:56.262Z,51.73
2023-03-30T21:12:22.771Z,51.53
2023-03-30T21:14:49.325Z,51.37
2023-03-30T21:17:15.750Z,51.28
2023-03-30T21:19:43.655Z,51.55
2023-03-30T21:22:08.817Z,51.77
2023-03-30T21:24:35.306Z,51.85
2023-03-30T21:27:01.767Z,51.78
2023-03-30T21:29:28.339Z,51.64
2023-03-30T21:31:54.829Z,51.30
2023-03-30T21:34:21.420Z,51.61
2023-03-30T21:36:48.199Z,51.72
2023-03-30T21:39:14.548Z,51.60
2023-03-30T21:41:41.004Z,51.77
2023-03-30T21:44:12.799Z,51.71
2023-03-30T21:46:40.284Z,52.04
2023-03-30T21:49:08.303Z,52.06
2023-03-30T21:51:34.797Z,52.13
2023-03-30T21:54:01.266Z,52.24
2023-03-30T21:56:27.611Z,52.78
2023-03-30T21:58:54.060Z,52.46
2023-03-30T22:01:20.628Z,52.62
2023-03-30T22:03:46.914Z,53.05
2023-03-30T22:06:19.719Z,53.20
2023-03-30T22:08:46.733Z,52.94
2023-03-30T22:11:17.867Z,53.00
2023-03-30T22:13:47.578Z,53.37
2023-03-30T22:16:15.650Z,53.76
2023-03-30T22:18:44.466Z,54.26
2023-03-30T22:21:09.549Z,53.39
2023-03-30T22:23:35.870Z,53.49
2023-03-30T22:26:06.699Z,53.54
2023-03-30T22:31:28.956Z,53.69
2023-03-30T22:33:57.188Z,53.82
2023-03-30T22:36:31.390Z,54.11
2023-03-30T22:38:59.707Z,54.18
2023-03-30T22:41:28.077Z,54.38
2023-03-30T22:43:53.740Z,54.76
2023-03-30T22:49:04.225Z,54.81
2023-03-30T22:51:30.565Z,54.87
2023-03-30T22:53:56.990Z,55.67
2023-03-30T22:56:23.380Z,55.80
2023-03-30T22:58:49.729Z,56.17
2023-03-30T23:01:16.108Z,56.18
2023-03-30T23:03:42.486Z,56.43
2023-03-30T23:06:09.077Z,56.76
2023-03-30T23:08:35.172Z,57.16
2023-03-30T23:11:01.568Z,57.44
2023-03-30T23:13:27.938Z,57.60
2023-03-30T23:15:54.531Z,57.92
2023-03-30T23:18:20.922Z,58.36
2023-03-30T23:20:47.313Z,58.28
2023-03-30T23:23:13.729Z,58.18
2023-03-30T23:25:40.121Z,58.65
2023-03-30T23:28:06.454Z,59.12
2023-03-30T23:30:32.853Z,59.32
2023-03-30T23:33:02.897Z,59.55
2023-03-30T23:35:27.952Z,59.91
2023-03-30T23:37:54.321Z,60.25
2023-03-30T23:40:20.711Z,60.38
2023-03-30T23:42:47.294Z,60.65
2023-03-30T23:45:13.662Z,60.93
2023-03-30T23:47:39.987Z,61.41
2023-03-30T23:50:06.412Z,61.95
2023-03-30T23:52:32.754Z,62.05
2023-03-30T23:54:59.103Z,62.31
2023-03-30T23:57:25.566Z,62.34
2023-03-30T23:59:51.844Z,62.38
